createdAt,value
2023-05-01T00:01:43.738Z,100765.60
2023-05-01T00:04:13.069Z,100767.00
2023-05-01T00:06:42.245Z,100763.60
2023-05-01T00:09:11.401Z,100758.60
2023-05-01T00:11:40.426Z,100761.40
2023-05-01T00:14:09.425Z,100761.20
2023-05-01T00:16:38.615Z,100763.40
2023-05-01T00:19:07.656Z,100768.00
2023-05-01T00:21:36.720Z,100761.40
2023-05-01T00:24:06.598Z,100760.20
2023-05-01T00:26:35.610Z,100758.40
2023-05-01T00:29:11.863Z,100754.20
2023-05-01T00:31:41.682Z,100755.60
2023-05-01T00:34:11.511Z,100749.20
2023-05-01T00:36:41.056Z,100746.40
2023-05-01T00:39:10.855Z,100742.00
2023-05-01T00:41:39.943Z,100744.20
2023-05-01T00:44:09.143Z,100746.20
2023-05-01T00:46:38.586Z,100741.00
2023-05-01T00:49:08.033Z,100737.00
2023-05-01T00:51:37.440Z,100735.20
2023-05-01T00:54:07.162Z,100729.20
2023-05-01T00:56:36.971Z,100727.80
2023-05-01T00:59:06.379Z,100727.40
2023-05-01T01:01:36.002Z,100724.40
2023-05-01T01:04:06.029Z,100719.80
2023-05-01T01:06:45.856Z,100721.80
2023-05-01T01:09:28.929Z,100725.80
2023-05-01T01:12:16.298Z,100721.00
2023-05-01T01:14:57.079Z,100719.80
2023-05-01T01:17:34.880Z,100723.40
2023-05-01T01:20:30.432Z,100718.80
2023-05-01T01:23:26.454Z,100717.40
2023-05-01T01:26:13.398Z,100717.60
2023-05-01T01:29:15.531Z,100724.40
2023-05-01T01:32:00.824Z,100720.60
2023-05-01T01:34:36.149Z,100718.60
2023-05-01T01:37:22.168Z,100723.60
2023-05-01T01:40:02.460Z,100720.80
2023-05-01T01:42:40.309Z,100721.80
2023-05-01T01:45:18.821Z,100712.20
2023-05-01T01:47:52.192Z,100712.20
2023-05-01T01:50:25.642Z,100711.20
2023-05-01T01:52:59.954Z,100703.40
2023-05-01T01:55:32.922Z,100702.40
2023-05-01T01:58:03.732Z,100707.60
2023-05-01T02:00:35.061Z,100702.20
2023-05-01T02:03:06.248Z,100705.60
2023-05-01T02:05:37.516Z,100706.80
2023-05-01T02:08:08.516Z,100709.20
2023-05-01T02:10:39.878Z,100707.20
2023-05-01T02:13:11.875Z,100703.20
2023-05-01T02:15:42.058Z,100705.00
2023-05-01T02:18:12.869Z,100704.00
2023-05-01T02:20:43.808Z,100700.00
2023-05-01T02:23:14.285Z,100695.20
2023-05-01T02:25:45.019Z,100697.00
2023-05-01T02:28:18.413Z,100690.20
2023-05-01T02:30:47.454Z,100687.40
2023-05-01T02:33:16.776Z,100680.80
2023-05-01T02:35:47.021Z,100680.20
2023-05-01T02:38:18.150Z,100677.20
2023-05-01T02:40:55.587Z,100676.60
2023-05-01T02:43:28.419Z,100677.00
2023-05-01T02:46:01.236Z,100679.20
2023-05-01T02:48:33.167Z,100680.20
2023-05-01T02:51:04.052Z,100687.00
2023-05-01T02:53:34.478Z,100680.60
2023-05-01T02:56:08.961Z,100678.00
2023-05-01T02:58:38.705Z,100673.00
2023-05-01T03:01:07.803Z,100676.40
2023-05-01T03:03:37.457Z,100680.40
2023-05-01T03:06:06.901Z,100673.80
2023-05-01T03:08:36.792Z,100678.20
2023-05-01T03:11:08.288Z,100677.60
2023-05-01T03:13:37.409Z,100682.20
2023-05-01T03:16:36.545Z,100674.40
2023-05-01T03:19:06.119Z,100671.00
2023-05-01T03:21:36.454Z,100669.60
2023-05-01T03:24:07.246Z,100668.80
2023-05-01T03:26:36.262Z,100667.60
2023-05-01T03:29:05.281Z,100667.40
2023-05-01T03:31:34.910Z,100668.00
2023-05-01T03:34:04.002Z,100661.20
2023-05-01T03:36:33.673Z,100669.20
2023-05-01T03:39:04.217Z,100663.40
2023-05-01T03:42:11.606Z,100660.60
2023-05-01T03:44:44.197Z,100658.60
2023-05-01T03:47:13.366Z,100663.60
2023-05-01T03:49:44.316Z,100657.60
2023-05-01T03:52:14.065Z,100661.60
2023-05-01T03:54:44.058Z,100663.40
2023-05-01T03:57:26.349Z,100662.80
2023-05-01T03:59:55.620Z,100664.40
2023-05-01T04:02:25.267Z,100666.20
2023-05-01T04:04:54.377Z,100663.60
2023-05-01T04:07:23.915Z,100656.20
2023-05-01T04:09:53.324Z,100656.60
2023-05-01T04:12:22.681Z,100654.20
2023-05-01T04:14:51.681Z,100647.20
2023-05-01T04:17:21.508Z,100649.20
2023-05-01T04:19:50.561Z,100645.40
2023-05-01T04:22:19.590Z,100646.20
2023-05-01T04:24:48.692Z,100646.40
2023-05-01T04:27:19.017Z,100650.60
2023-05-01T04:29:48.041Z,100642.60
2023-05-01T04:32:17.501Z,100581.40
2023-05-01T04:34:46.483Z,100572.80
2023-05-01T04:37:17.317Z,100573.40
2023-05-01T04:39:46.356Z,100576.60
2023-05-01T04:42:15.417Z,100570.40
2023-05-01T04:44:46.592Z,100568.80
2023-05-01T04:47:15.590Z,100563.80
2023-05-01T04:49:44.565Z,100565.00
2023-05-01T04:52:13.558Z,100557.00
2023-05-01T04:54:52.436Z,100553.00
2023-05-01T04:57:25.512Z,100543.60
2023-05-01T05:00:07.492Z,100535.60
2023-05-01T05:02:38.390Z,100537.40
2023-05-01T05:05:10.221Z,100530.40
2023-05-01T05:07:39.314Z,100531.00
2023-05-01T05:10:27.908Z,100521.00
2023-05-01T05:13:10.612Z,100518.80
2023-05-01T05:15:40.327Z,100511.60
2023-05-01T05:18:11.020Z,100505.60
2023-05-01T05:20:40.535Z,100493.60
2023-05-01T05:23:09.731Z,100490.60
2023-05-01T05:25:38.799Z,100489.80
2023-05-01T05:28:08.168Z,100483.20
2023-05-01T05:30:37.782Z,100480.80
2023-05-01T05:33:09.077Z,100483.40
2023-05-01T05:35:38.428Z,100489.80
2023-05-01T05:38:07.414Z,100489.40
2023-05-01T05:40:38.221Z,100495.60
2023-05-01T05:43:08.057Z,100495.00
2023-05-01T05:45:37.362Z,100486.00
2023-05-01T05:48:07.202Z,100486.20
2023-05-01T05:50:40.438Z,100478.60
2023-05-01T05:53:09.785Z,100472.80
2023-05-01T05:55:39.170Z,100469.20
2023-05-01T05:58:08.671Z,100459.80
2023-05-01T06:00:38.321Z,100444.20
2023-05-01T06:03:08.084Z,100427.60
2023-05-01T06:05:37.608Z,100427.40
2023-05-01T06:08:06.975Z,100435.00
2023-05-01T06:10:36.516Z,100441.20
2023-05-01T06:13:13.661Z,100450.20
2023-05-01T06:15:45.489Z,100467.00
2023-05-01T06:18:15.113Z,100472.60
2023-05-01T06:20:44.337Z,100478.40
2023-05-01T06:23:13.315Z,100477.20
2023-05-01T06:25:52.110Z,100494.20
2023-05-01T06:28:21.889Z,100483.20
2023-05-01T06:30:50.966Z,100481.40
2023-05-01T06:33:21.220Z,100481.60
2023-05-01T06:35:59.151Z,100480.00
2023-05-01T06:38:28.444Z,100485.40
2023-05-01T06:40:57.507Z,100486.20
2023-05-01T06:43:29.975Z,100489.80
2023-05-01T06:45:59.485Z,100484.60
2023-05-01T06:48:28.525Z,100487.60
2023-05-01T06:50:57.786Z,100499.00
2023-05-01T06:53:30.422Z,100490.00
2023-05-01T06:55:59.470Z,100497.40
2023-05-01T06:58:28.863Z,100496.40
2023-05-01T07:00:58.410Z,100499.00
2023-05-01T07:03:27.678Z,100513.40
2023-05-01T07:05:57.044Z,100505.60
2023-05-01T07:08:27.473Z,100510.80
2023-05-01T07:10:56.596Z,100507.00
2023-05-01T07:13:27.023Z,100508.40
2023-05-01T07:15:59.191Z,100508.40
2023-05-01T07:18:28.424Z,100507.60
2023-05-01T07:20:57.407Z,100515.60
2023-05-01T07:23:26.677Z,100511.40
2023-05-01T07:25:56.830Z,100508.40
2023-05-01T07:28:25.846Z,100500.20
2023-05-01T07:30:54.947Z,100507.80
2023-05-01T07:33:25.894Z,100502.60
2023-05-01T08:23:43.343Z,100489.40
2023-05-01T08:26:16.957Z,100484.00
2023-05-01T08:28:51.305Z,100483.80
2023-05-01T08:31:25.516Z,100485.40
2023-05-01T08:33:58.765Z,100485.80
2023-05-01T08:36:32.905Z,100475.00
2023-05-01T08:39:06.498Z,100470.80
2023-05-01T08:41:41.939Z,100474.80
2023-05-01T08:44:17.168Z,100473.80
2023-05-01T08:46:57.985Z,100484.20
2023-05-01T08:49:36.834Z,100492.20
2023-05-01T08:52:12.079Z,100494.60
2023-05-01T08:54:48.645Z,100492.80
2023-05-01T08:57:24.107Z,100500.40
2023-05-01T08:59:59.038Z,100495.40
2023-05-01T09:02:35.870Z,100483.80
2023-05-01T09:05:11.643Z,100476.00
2023-05-01T09:07:46.119Z,100464.20
2023-05-01T09:10:21.710Z,100458.60
2023-05-01T09:13:01.602Z,100474.60
2023-05-01T09:15:35.139Z,100461.60
2023-05-01T09:18:11.635Z,100465.00
2023-05-01T09:20:45.814Z,100468.20
2023-05-01T09:23:20.457Z,100463.60
2023-05-01T09:25:55.572Z,100472.80
2023-05-01T09:28:46.541Z,100462.40
2023-05-01T09:31:28.977Z,100471.80
2023-05-01T09:34:04.621Z,100469.60
2023-05-01T09:36:38.411Z,100462.60
2023-05-01T09:39:23.376Z,100470.00
2023-05-01T09:41:56.979Z,100465.80
2023-05-01T09:44:30.140Z,100467.80
2023-05-01T09:47:04.471Z,100470.40
2023-05-01T09:49:51.100Z,100479.40
2023-05-01T09:52:24.438Z,100479.60
2023-05-01T09:55:16.622Z,100505.60
2023-05-01T09:57:50.642Z,100477.00
2023-05-01T10:00:25.279Z,100482.80
2023-05-01T10:02:58.591Z,100482.40
2023-05-01T10:05:45.706Z,100485.00
2023-05-01T10:08:19.087Z,100477.40
2023-05-01T10:11:06.324Z,100470.60
2023-05-01T10:13:39.594Z,100461.80
2023-05-01T10:16:32.858Z,100466.60
2023-05-01T10:19:06.772Z,100460.80
2023-05-01T10:21:40.108Z,100465.60
2023-05-01T10:24:15.211Z,100454.60
2023-05-01T10:26:52.101Z,100447.40
2023-05-01T10:29:31.060Z,100437.40
2023-05-01T10:32:06.826Z,100438.20
2023-05-01T10:34:49.328Z,100431.80
2023-05-01T10:37:33.333Z,100440.80
2023-05-01T10:40:48.375Z,100461.40
2023-05-01T10:43:28.646Z,100467.00
2023-05-01T10:46:33.418Z,100460.60
2023-05-01T10:49:07.165Z,100460.20
2023-05-01T10:52:04.123Z,100457.20
2023-05-01T10:54:37.794Z,100454.80
2023-05-01T10:57:31.090Z,100451.20
2023-05-01T11:00:14.077Z,100444.40
2023-05-01T11:02:47.421Z,100431.80
2023-05-01T11:05:41.089Z,100429.20
2023-05-01T11:08:35.897Z,100431.60
2023-05-01T11:11:50.307Z,100424.00
2023-05-01T11:14:25.163Z,100422.20
2023-05-01T11:16:58.352Z,100419.00
2023-05-01T11:19:50.839Z,100423.00
2023-05-01T11:22:25.914Z,100412.40
2023-05-01T11:24:59.464Z,100400.40
2023-05-01T11:27:33.510Z,100406.60
2023-05-01T11:30:08.722Z,100399.00
2023-05-01T11:32:46.487Z,100398.60
2023-05-01T11:35:26.556Z,100388.00
2023-05-01T11:38:00.132Z,100387.60
2023-05-01T11:40:35.595Z,100388.20
2023-05-01T11:43:10.232Z,100378.80
2023-05-01T11:45:43.415Z,100377.00
2023-05-01T11:48:19.752Z,100363.40
2023-05-01T11:50:53.475Z,100370.00
2023-05-01T11:53:26.867Z,100352.20
2023-05-01T11:56:01.037Z,100356.20
2023-05-01T11:58:38.017Z,100356.60
2023-05-01T12:01:12.995Z,100354.20
2023-05-01T12:03:47.379Z,100347.80
2023-05-01T12:06:20.629Z,100352.60
2023-05-01T12:08:55.135Z,100339.40
2023-05-01T12:11:28.638Z,100339.80
2023-05-01T12:14:02.229Z,100325.80
2023-05-01T12:16:36.232Z,100339.20
2023-05-01T12:19:12.197Z,100327.80
2023-05-01T12:21:46.013Z,100333.20
2023-05-01T12:24:21.334Z,100316.20
2023-05-01T12:27:04.405Z,100314.60
2023-05-01T12:29:47.295Z,100314.00
2023-05-01T12:32:21.094Z,100305.80
2023-05-01T12:34:55.612Z,100304.40
2023-05-01T12:37:34.456Z,100296.60
2023-05-01T12:40:15.582Z,100304.00
2023-05-01T12:42:58.062Z,100296.40
2023-05-01T12:45:31.881Z,100287.00
2023-05-01T12:48:15.725Z,100282.20
2023-05-01T12:50:54.971Z,100275.60
2023-05-01T12:53:30.373Z,100272.80
2023-05-01T12:56:03.549Z,100276.60
2023-05-01T12:58:41.495Z,100276.60
2023-05-01T13:01:24.496Z,100279.80
2023-05-01T13:03:58.542Z,100279.40
2023-05-01T13:06:37.278Z,100264.20
2023-05-01T13:09:15.626Z,100255.80
2023-05-01T13:12:02.630Z,100251.00
2023-05-01T13:14:41.950Z,100245.20
2023-05-01T13:17:25.593Z,100246.00
2023-05-01T13:20:01.498Z,100240.60
2023-05-01T13:22:37.319Z,100232.20
2023-05-01T13:25:21.526Z,100231.40
2023-05-01T13:27:55.359Z,100228.20
2023-05-01T13:30:37.763Z,100220.60
2023-05-01T13:33:14.118Z,100225.60
2023-05-01T13:35:47.445Z,100221.20
2023-05-01T13:38:23.484Z,100224.40
2023-05-01T13:40:56.622Z,100212.00
2023-05-01T13:43:29.749Z,100211.40
2023-05-01T13:46:03.941Z,100208.40
2023-05-01T13:48:37.226Z,100202.60
2023-05-01T13:51:10.907Z,100204.80
2023-05-01T13:53:45.145Z,100205.60
2023-05-01T13:56:18.627Z,100194.00
2023-05-01T13:58:51.819Z,100195.40
2023-05-01T14:01:25.916Z,100192.00
2023-05-01T14:04:00.457Z,100180.00
2023-05-01T14:06:35.756Z,100176.20
2023-05-01T14:09:09.050Z,100168.40
2023-05-01T14:11:49.378Z,100175.60
2023-05-01T14:14:22.557Z,100164.80
2023-05-01T14:16:56.190Z,100158.80
2023-05-01T14:19:29.511Z,100160.00
2023-05-01T14:22:03.912Z,100156.60
2023-05-01T14:24:41.675Z,100157.20
2023-05-01T14:27:17.536Z,100150.20
2023-05-01T14:29:51.687Z,100149.00
2023-05-01T14:32:24.864Z,100145.80
2023-05-01T14:34:59.730Z,100147.60
2023-05-01T14:37:35.530Z,100133.40
2023-05-01T14:40:15.651Z,100123.20
2023-05-01T14:42:49.343Z,100123.80
2023-05-01T14:45:22.851Z,100118.60
2023-05-01T14:47:56.085Z,100110.20
2023-05-01T14:50:29.271Z,100112.40
2023-05-01T14:53:03.795Z,100106.60
2023-05-01T14:55:37.252Z,100105.20
2023-05-01T14:58:10.364Z,100115.20
2023-05-01T15:00:43.627Z,100113.00
2023-05-01T15:03:16.980Z,100112.80
2023-05-01T15:05:50.171Z,100108.20
2023-05-01T15:08:24.077Z,100113.40
2023-05-01T15:10:57.282Z,100106.80
2023-05-01T15:13:31.840Z,100097.00
2023-05-01T15:16:05.705Z,100104.00
2023-05-01T15:18:38.854Z,100104.00
2023-05-01T15:21:12.006Z,100095.60
2023-05-01T15:23:46.153Z,100090.20
2023-05-01T15:26:19.305Z,100091.00
2023-05-01T15:28:52.462Z,100087.60
2023-05-01T15:31:25.696Z,100087.80
2023-05-01T15:33:58.853Z,100081.40
2023-05-01T15:36:32.760Z,100072.20
2023-05-01T15:39:11.635Z,100076.80
2023-05-01T15:41:44.995Z,100076.00
2023-05-01T15:44:18.198Z,100077.60
2023-05-01T15:46:53.074Z,100074.20
2023-05-01T15:49:26.291Z,100077.20
2023-05-01T15:51:59.475Z,100074.20
2023-05-01T15:54:32.677Z,100064.60
2023-05-01T15:57:07.658Z,100070.00
2023-05-01T15:59:42.947Z,100067.00
2023-05-01T16:02:16.077Z,100073.40
2023-05-01T16:04:52.740Z,100071.00
2023-05-01T16:07:27.244Z,100060.60
2023-05-01T16:10:01.681Z,100062.80
2023-05-01T16:12:35.234Z,100064.60
2023-05-01T16:15:11.228Z,100064.00
2023-05-01T16:17:47.860Z,100055.40
2023-05-01T16:20:21.848Z,100047.80
2023-05-01T16:22:54.968Z,100048.40
2023-05-01T16:25:28.087Z,100048.80
2023-05-01T16:28:01.242Z,100040.40
2023-05-01T16:30:34.340Z,100048.20
2023-05-01T16:33:19.967Z,100048.40
2023-05-01T16:35:53.389Z,100047.40
2023-05-01T16:38:27.520Z,100037.00
2023-05-01T16:41:00.657Z,100036.20
2023-05-01T16:43:33.834Z,100040.00
2023-05-01T16:46:07.147Z,100049.20
2023-05-01T16:48:41.800Z,100046.20
2023-05-01T16:51:15.102Z,100043.80
2023-05-01T16:53:48.902Z,100048.40
2023-05-01T16:56:23.247Z,100044.00
2023-05-01T16:58:56.419Z,100047.40
2023-05-01T17:01:29.611Z,100046.20
2023-05-01T17:04:02.838Z,100042.20
2023-05-01T17:06:36.179Z,100041.20
2023-05-01T17:09:09.454Z,100040.80
2023-05-01T17:11:43.139Z,100041.20
2023-05-01T17:14:17.320Z,100040.00
2023-05-01T17:16:50.649Z,100040.20
2023-05-01T17:19:23.933Z,100043.40
2023-05-01T17:21:58.211Z,100038.60
2023-05-01T17:24:31.785Z,100037.40
2023-05-01T17:27:05.061Z,100036.80
2023-05-01T17:30:05.573Z,100038.80
2023-05-01T17:32:38.788Z,100031.60
2023-05-01T17:35:12.736Z,100030.60
2023-05-01T17:37:45.955Z,100032.80
2023-05-01T17:40:19.156Z,100032.40
2023-05-01T17:42:52.277Z,100028.60
2023-05-01T17:45:25.554Z,100025.60
2023-05-01T17:47:59.043Z,100028.20
2023-05-01T17:50:32.187Z,100024.60
2023-05-01T17:53:05.322Z,100029.20
2023-05-01T17:55:39.078Z,100023.80
2023-05-01T17:58:12.862Z,100025.00
2023-05-01T18:00:46.519Z,100023.40
2023-05-01T18:03:19.728Z,100027.00
2023-05-01T18:05:52.961Z,100027.60
2023-05-01T18:08:26.130Z,100023.80
2023-05-01T18:10:59.354Z,100028.40
2023-05-01T18:13:38.027Z,100029.00
2023-05-01T18:16:11.861Z,100027.80
2023-05-01T18:18:45.602Z,100028.60
2023-05-01T18:21:18.772Z,100031.20
2023-05-01T18:23:52.018Z,100030.20
2023-05-01T18:26:27.633Z,100029.20
2023-05-01T18:29:00.819Z,100027.60
2023-05-01T18:31:35.902Z,100031.00
2023-05-01T18:34:10.224Z,100030.00
2023-05-01T18:36:43.285Z,100037.60
2023-05-01T18:39:16.579Z,100039.80
2023-05-01T18:41:49.806Z,100039.00
2023-05-01T18:44:23.158Z,100042.60
2023-05-01T18:46:56.292Z,100044.20
2023-05-01T18:49:29.496Z,100041.60
2023-05-01T18:52:03.311Z,100046.60
2023-05-01T18:54:36.635Z,100046.00
2023-05-01T18:57:09.749Z,100047.80
2023-05-01T18:59:44.689Z,100051.60
2023-05-01T19:02:18.074Z,100047.20
2023-05-01T19:04:57.422Z,100048.20
2023-05-01T19:07:31.416Z,100046.60
2023-05-01T19:10:05.264Z,100047.60
2023-05-01T19:12:39.324Z,100046.40
2023-05-01T19:15:14.413Z,100045.80
2023-05-01T19:17:47.569Z,100043.40
2023-05-01T19:20:20.967Z,100041.60
2023-05-01T19:22:54.055Z,100047.00
2023-05-01T19:25:27.629Z,100046.40
2023-05-01T19:28:02.039Z,100045.40
2023-05-01T19:30:35.249Z,100043.00
2023-05-01T19:33:08.463Z,100042.40
2023-05-01T19:35:41.659Z,100044.60
2023-05-01T19:38:14.817Z,100041.40
2023-05-01T19:40:47.887Z,100043.60
2023-05-01T19:43:21.017Z,100043.80
2023-05-01T19:45:54.529Z,100039.80
2023-05-01T19:48:27.793Z,100039.20
2023-05-01T19:51:00.903Z,100040.40
2023-05-01T19:53:34.032Z,100040.60
2023-05-01T19:56:07.432Z,100033.60
2023-05-01T19:58:40.887Z,100035.60
2023-05-01T20:01:14.406Z,100038.80
2023-05-01T20:03:47.684Z,100038.80
2023-05-01T20:06:20.908Z,100038.20
2023-05-01T20:08:54.065Z,100040.00
2023-05-01T20:11:27.136Z,100037.40
2023-05-01T20:14:00.799Z,100036.40
2023-05-01T20:16:35.768Z,100041.80
2023-05-01T20:19:09.944Z,100038.20
2023-05-01T20:21:43.075Z,100040.00
2023-05-01T20:24:16.124Z,100035.80
2023-05-01T20:26:50.214Z,100031.00
2023-05-01T20:29:23.312Z,100035.40
2023-05-01T20:31:56.595Z,100031.20
2023-05-01T20:34:29.820Z,100030.00
2023-05-01T20:37:02.993Z,100031.40
2023-05-01T20:39:36.128Z,100034.80
2023-05-01T20:42:09.355Z,100038.40
2023-05-01T20:44:42.772Z,100037.80
2023-05-01T20:47:16.219Z,100040.20
2023-05-01T20:49:49.374Z,100037.40
2023-05-01T20:52:22.442Z,100041.00
2023-05-01T20:54:55.613Z,100044.60
2023-05-01T20:57:28.747Z,100037.40
2023-05-01T21:00:02.065Z,100040.60
2023-05-01T21:02:37.429Z,100028.80
2023-05-01T21:05:13.904Z,100029.40
2023-05-01T21:07:48.035Z,100036.60
2023-05-01T21:10:21.178Z,100031.00
2023-05-01T21:12:57.846Z,100029.00
2023-05-01T21:15:31.984Z,100032.40
2023-05-01T21:18:05.609Z,100033.00
2023-05-01T21:20:40.075Z,100029.20
2023-05-01T21:23:13.819Z,100031.40
2023-05-01T21:25:47.111Z,100027.20
2023-05-01T21:28:20.221Z,100032.00
2023-05-01T21:30:57.550Z,100029.60
2023-05-01T21:33:30.964Z,100028.60
2023-05-01T21:36:04.530Z,100029.20
2023-05-01T21:38:38.566Z,100028.40
2023-05-01T21:41:15.308Z,100031.40
2023-05-01T21:43:48.761Z,100032.00
2023-05-01T21:46:23.447Z,100035.20
2023-05-01T21:48:56.689Z,100033.40
2023-05-01T21:51:32.324Z,100024.40
2023-05-01T21:54:06.844Z,100027.20
2023-05-01T21:56:40.467Z,100030.40
2023-05-01T21:59:14.215Z,100029.20
2023-05-01T22:01:47.835Z,100030.20
2023-05-01T22:04:22.137Z,100027.60
2023-05-01T22:06:55.376Z,100028.40
2023-05-01T22:09:28.764Z,100033.40
2023-05-01T22:12:02.055Z,100032.00
2023-05-01T22:14:46.784Z,100030.20
2023-05-01T22:17:24.418Z,100028.20
2023-05-01T22:19:57.986Z,100029.20
2023-05-01T22:22:31.271Z,100027.00
2023-05-01T22:25:04.927Z,100024.80
2023-05-01T22:27:38.868Z,100024.20
2023-05-01T22:30:14.056Z,100021.20
2023-05-01T22:32:47.221Z,100014.40
2023-05-01T22:35:20.509Z,100014.20
2023-05-01T22:37:53.657Z,100014.60
2023-05-01T22:40:26.927Z,100010.20
2023-05-01T22:43:00.286Z,100010.60
2023-05-01T22:45:33.365Z,100008.00
2023-05-01T22:48:07.131Z,100007.60
2023-05-01T22:50:42.736Z,100004.00
2023-05-01T22:53:15.970Z,100004.00
2023-05-01T22:55:49.089Z,100005.40
2023-05-01T22:58:22.279Z,100000.60
2023-05-01T23:00:55.698Z,100006.80
2023-05-01T23:03:28.893Z,100006.60
2023-05-01T23:06:02.185Z,100000.20
2023-05-01T23:08:35.403Z,100000.00
2023-05-01T23:11:11.127Z,99999.60
2023-05-01T23:13:49.101Z,100003.00
2023-05-01T23:16:22.217Z,100004.80
2023-05-01T23:18:56.489Z,99998.60
2023-05-01T23:21:29.625Z,100000.20
2023-05-01T23:24:05.466Z,99997.40
2023-05-01T23:26:43.384Z,99999.00
2023-05-01T23:29:19.296Z,99998.40
2023-05-01T23:31:52.447Z,99995.20
2023-05-01T23:34:26.083Z,99996.80
2023-05-01T23:36:59.106Z,99994.20
2023-05-01T23:39:32.222Z,99993.00
2023-05-01T23:42:05.395Z,99994.40
2023-05-01T23:44:38.502Z,99995.80
2023-05-01T23:47:11.809Z,99991.00
2023-05-01T23:49:44.993Z,99986.20
2023-05-01T23:52:18.282Z,99989.00
2023-05-01T23:54:51.917Z,99991.60
2023-05-01T23:57:25.370Z,99992.20
2023-05-01T23:59:58.686Z,99996.20
